Time;durP1;ratioP1;P1;durP2;ratioP2;P2;SDS_P1;SDS_P2;PMS_P1;PMS_P2;Temp;Humidity;BMP_temperature;BMP_pressure;BME280_temperature;BME280_humidity;BME280_pressure;Samples;Min_cycle;Max_cycle;Signal;HPM_P1;HPM_P2
2022/09/19 00:00:53;;;;;;;11.67;3.57;;;;;;;;;;5053442;28;20550;-66
2022/09/19 00:03:19;;;;;;;8.73;2.97;;;;;;;;;;5052268;28;20526;-67
2022/09/19 00:05:45;;;;;;;12.47;2.97;;;;;;;;;;5052462;28;20174;-66
2022/09/19 00:08:11;;;;;;;18.17;4.10;;;;;;;;;;5053680;28;20258;-66
2022/09/19 00:10:41;;;;;;;15.93;3.50;;;;;;;;;;5052022;28;20202;-66
2022/09/19 00:13:08;;;;;;;13.50;2.70;;;;;;;;;;5053335;28;20257;-67
2022/09/19 00:15:45;;;;;;;14.30;3.30;;;;;;;;;;5053411;28;20178;-67
2022/09/19 00:18:11;;;;;;;14.67;3.73;;;;;;;;;;5052059;28;20178;-66
2022/09/19 00:20:41;;;;;;;18.10;3.50;;;;;;;;;;5053252;28;20228;-66
2022/09/19 00:26:01;;;;;;;20.90;3.93;;;;;;;;;;5053766;28;20224;-67
2022/09/19 00:28:28;;;;;;;15.93;3.33;;;;;;;;;;5052280;28;20197;-66
2022/09/19 00:30:55;;;;;;;15.73;3.87;;;;;;;;;;5052193;28;20205;-67
2022/09/19 00:33:21;;;;;;;15.80;3.40;;;;;;;;;;5053396;28;20214;-66
2022/09/19 00:35:54;;;;;;;17.57;3.40;;;;;;;;;;5053654;28;20552;-66
2022/09/19 00:38:21;;;;;;;12.17;2.87;;;;;;;;;;5053483;28;20681;-66
2022/09/19 00:40:47;;;;;;;15.47;3.50;;;;;;;;;;5051654;28;20263;-66
2022/09/19 00:43:14;;;;;;;12.73;3.50;;;;;;;;;;5056875;28;20178;-67
2022/09/19 00:45:39;;;;;;;16.53;3.97;;;;;;;;;;5057266;28;20182;-67
2022/09/19 00:48:06;;;;;;;22.37;3.57;;;;;;;;;;5057082;28;20175;-67
2022/09/19 00:50:32;;;;;;;14.50;3.27;;;;;;;;;;5056720;28;20666;-67
2022/09/19 00:53:00;;;;;;;12.77;3.53;;;;;;;;;;5055580;28;20197;-67
2022/09/19 00:55:26;;;;;;;21.10;3.50;;;;;;;;;;5057143;28;20181;-67
2022/09/19 00:58:02;;;;;;;19.70;3.63;;;;;;;;;;5055498;28;20185;-67
2022/09/19 01:00:28;;;;;;;17.50;3.50;;;;;;;;;;5056902;28;20210;-66
2022/09/19 01:02:54;;;;;;;15.43;3.00;;;;;;;;;;5055547;28;20643;-66
2022/09/19 01:05:27;;;;;;;16.37;3.23;;;;;;;;;;5056702;28;20175;-67
2022/09/19 01:08:13;;;;;;;13.47;3.10;;;;;;;;;;5057013;28;20158;-68
2022/09/19 01:11:02;;;;;;;10.23;3.23;;;;;;;;;;5055147;28;20202;-67
2022/09/19 01:13:38;;;;;;;14.50;3.83;;;;;;;;;;5056810;28;20246;-67
2022/09/19 01:16:12;;;;;;;21.43;4.30;;;;;;;;;;5056802;28;20526;-67
2022/09/19 01:18:47;;;;;;;24.70;4.20;;;;;;;;;;5055235;28;20237;-67
2022/09/19 01:21:38;;;;;;;24.23;3.57;;;;;;;;;;5055143;28;20632;-67
2022/09/19 01:24:04;;;;;;;15.07;3.63;;;;;;;;;;5057034;28;20201;-67
2022/09/19 01:26:32;;;;;;;12.13;3.50;;;;;;;;;;5056608;28;20202;-67
2022/09/19 01:28:59;;;;;;;11.90;3.20;;;;;;;;;;5056091;28;20181;-67
2022/09/19 01:31:27;;;;;;;16.73;3.57;;;;;;;;;;5055029;28;20236;-67
2022/09/19 01:34:02;;;;;;;19.53;3.73;;;;;;;;;;5054786;28;20186;-68
2022/09/19 01:36:32;;;;;;;16.63;3.60;;;;;;;;;;5056718;28;20163;-68
2022/09/19 01:38:59;;;;;;;9.37;3.03;;;;;;;;;;5056080;28;20548;-67
2022/09/19 01:41:25;;;;;;;16.60;2.93;;;;;;;;;;5056253;28;20206;-68
2022/09/19 01:43:51;;;;;;;17.33;3.60;;;;;;;;;;5055952;28;20174;-67
2022/09/19 01:46:26;;;;;;;14.70;3.20;;;;;;;;;;5054528;28;20531;-66
2022/09/19 01:49:06;;;;;;;13.30;3.00;;;;;;;;;;5056037;28;20246;-67
2022/09/19 01:51:43;;;;;;;17.23;3.57;;;;;;;;;;5055885;28;20162;-68
2022/09/19 01:54:09;;;;;;;11.70;3.10;;;;;;;;;;5055891;28;20167;-67
2022/09/19 01:56:53;;;;;;;18.67;3.33;;;;;;;;;;5056173;28;20178;-66
2022/09/19 01:59:25;;;;;;;18.30;3.70;;;;;;;;;;5054293;28;20551;-66
2022/09/19 02:02:07;;;;;;;12.73;3.27;;;;;;;;;;5055846;28;20190;-67
2022/09/19 02:04:41;;;;;;;11.80;3.63;;;;;;;;;;5055588;28;20529;-66
2022/09/19 02:07:07;;;;;;;15.63;4.00;;;;;;;;;;5054293;28;20170;-67
2022/09/19 02:09:36;;;;;;;12.90;3.63;;;;;;;;;;5054070;28;20289;-67
2022/09/19 02:12:03;;;;;;;12.70;3.17;;;;;;;;;;5054489;28;20263;-67
2022/09/19 02:14:32;;;;;;;15.10;3.30;;;;;;;;;;5055399;28;20178;-67
2022/09/19 02:17:10;;;;;;;13.93;3.57;;;;;;;;;;5055857;28;20367;-67
2022/09/19 02:19:50;;;;;;;12.30;3.23;;;;;;;;;;5053880;28;20217;-68
2022/09/19 02:22:20;;;;;;;14.77;3.17;;;;;;;;;;5055853;28;20235;-69
2022/09/19 02:24:46;;;;;;;17.33;3.57;;;;;;;;;;5055060;28;20217;-67
2022/09/19 02:27:23;;;;;;;15.77;3.60;;;;;;;;;;5055434;28;20178;-66
2022/09/19 02:30:01;;;;;;;21.37;3.57;;;;;;;;;;5053700;28;20202;-68
2022/09/19 02:32:27;;;;;;;20.27;3.37;;;;;;;;;;5055302;28;20162;-67
2022/09/19 02:34:54;;;;;;;15.13;3.37;;;;;;;;;;5055064;28;20661;-67
2022/09/19 02:37:29;;;;;;;18.10;3.40;;;;;;;;;;5054898;28;20182;-67
2022/09/19 02:39:58;;;;;;;15.73;3.10;;;;;;;;;;5054892;28;20221;-67
2022/09/19 02:42:33;;;;;;;14.67;2.93;;;;;;;;;;5053629;28;20188;-66
2022/09/19 02:45:06;;;;;;;13.83;3.63;;;;;;;;;;5053680;28;20178;-68
2022/09/19 02:47:35;;;;;;;12.50;4.33;;;;;;;;;;5055170;28;20584;-66
2022/09/19 02:50:04;;;;;;;13.37;3.30;;;;;;;;;;5054969;28;20221;-66
2022/09/19 02:52:31;;;;;;;13.03;2.73;;;;;;;;;;5054652;28;20635;-67
2022/09/19 02:55:11;;;;;;;14.37;3.93;;;;;;;;;;5054624;28;20182;-67
2022/09/19 02:57:37;;;;;;;13.87;3.00;;;;;;;;;;5054904;28;20591;-67
2022/09/19 03:00:05;;;;;;;14.97;3.10;;;;;;;;;;5054358;28;20233;-67
2022/09/19 03:02:34;;;;;;;18.63;3.60;;;;;;;;;;5054348;28;20187;-67
2022/09/19 03:05:06;;;;;;;14.03;3.87;;;;;;;;;;5053757;28;20170;-67
2022/09/19 03:07:35;;;;;;;18.60;3.40;;;;;;;;;;5054524;28;20630;-67
2022/09/19 03:10:09;;;;;;;20.70;4.00;;;;;;;;;;5052889;28;20206;-67
2022/09/19 03:12:50;;;;;;;14.13;3.60;;;;;;;;;;5052910;28;20529;-67
2022/09/19 03:15:16;;;;;;;15.10;3.50;;;;;;;;;;5054558;28;20169;-68
2022/09/19 03:17:43;;;;;;;12.37;3.73;;;;;;;;;;5054072;28;20210;-67
2022/09/19 03:20:11;;;;;;;15.50;3.30;;;;;;;;;;5052664;28;20762;-67
2022/09/19 03:22:40;;;;;;;10.03;3.20;;;;;;;;;;5052727;28;20261;-67
2022/09/19 03:25:08;;;;;;;17.00;3.63;;;;;;;;;;5052679;28;20185;-67
2022/09/19 03:27:36;;;;;;;19.73;3.77;;;;;;;;;;5053904;28;20662;-67
2022/09/19 03:30:04;;;;;;;21.37;3.47;;;;;;;;;;5054590;28;20224;-67
2022/09/19 03:32:30;;;;;;;17.30;3.23;;;;;;;;;;5054483;28;20190;-67
2022/09/19 03:34:56;;;;;;;11.93;3.00;;;;;;;;;;5053716;28;20174;-67
2022/09/19 03:37:23;;;;;;;17.63;3.70;;;;;;;;;;5053549;28;20312;-67
2022/09/19 03:39:49;;;;;;;18.73;3.63;;;;;;;;;;5053509;28;20288;-67
2022/09/19 03:42:15;;;;;;;13.70;3.20;;;;;;;;;;5052360;28;20534;-67
2022/09/19 03:44:41;;;;;;;17.77;3.13;;;;;;;;;;5053939;28;20351;-67
2022/09/19 03:47:09;;;;;;;9.07;2.97;;;;;;;;;;5053703;28;20232;-67
2022/09/19 03:49:35;;;;;;;21.03;3.17;;;;;;;;;;5052220;28;20198;-67
2022/09/19 03:52:01;;;;;;;21.53;3.57;;;;;;;;;;5053496;28;20635;-68
2022/09/19 03:54:27;;;;;;;14.60;3.27;;;;;;;;;;5053446;28;20199;-67
2022/09/19 03:56:54;;;;;;;15.00;3.97;;;;;;;;;;5053952;28;20174;-68
2022/09/19 03:59:20;;;;;;;16.23;3.90;;;;;;;;;;5053400;28;20255;-67
2022/09/19 04:01:46;;;;;;;12.43;3.40;;;;;;;;;;5053288;28;20209;-67
2022/09/19 04:04:12;;;;;;;19.03;3.33;;;;;;;;;;5052001;28;20643;-67
2022/09/19 04:06:40;;;;;;;20.33;3.73;;;;;;;;;;5053648;28;20262;-67
2022/09/19 04:09:06;;;;;;;19.13;3.43;;;;;;;;;;5051972;28;20269;-67
2022/09/19 04:11:32;;;;;;;17.67;3.57;;;;;;;;;;5052253;28;20266;-68
2022/09/19 04:13:59;;;;;;;11.77;2.80;;;;;;;;;;5053540;28;20201;-67
2022/09/19 04:16:25;;;;;;;14.80;2.83;;;;;;;;;;5053035;28;20178;-68
2022/09/19 04:18:52;;;;;;;18.57;3.60;;;;;;;;;;5053356;28;20570;-67
2022/09/19 04:21:18;;;;;;;13.13;3.27;;;;;;;;;;5052769;28;20221;-67
2022/09/19 04:23:44;;;;;;;12.47;3.27;;;;;;;;;;5053174;28;20181;-67
2022/09/19 04:26:11;;;;;;;16.93;3.57;;;;;;;;;;5053122;28;20183;-67
2022/09/19 04:28:38;;;;;;;11.13;3.50;;;;;;;;;;5053100;28;20174;-66
2022/09/19 04:31:05;;;;;;;23.47;4.00;;;;;;;;;;5053280;28;20201;-67
2022/09/19 04:33:31;;;;;;;14.60;3.20;;;;;;;;;;5053152;28;20530;-67
2022/09/19 04:35:59;;;;;;;21.97;3.30;;;;;;;;;;5051785;28;20186;-67
2022/09/19 04:38:26;;;;;;;14.80;3.40;;;;;;;;;;5051762;28;20248;-67
2022/09/19 04:40:56;;;;;;;16.73;3.57;;;;;;;;;;5052817;28;20210;-67
2022/09/19 04:43:25;;;;;;;16.87;3.50;;;;;;;;;;5052953;28;20154;-67
2022/09/19 04:45:51;;;;;;;15.63;3.80;;;;;;;;;;5053237;28;20178;-67
2022/09/19 04:48:19;;;;;;;16.57;3.00;;;;;;;;;;5051701;28;20170;-67
2022/09/19 04:50:47;;;;;;;17.17;3.77;;;;;;;;;;5051480;28;20694;-67
2022/09/19 04:53:16;;;;;;;14.50;3.03;;;;;;;;;;5053068;28;20171;-67
2022/09/19 04:55:42;;;;;;;21.53;3.77;;;;;;;;;;5051608;28;20206;-67
2022/09/19 04:58:08;;;;;;;18.43;3.87;;;;;;;;;;5052845;28;20709;-68
2022/09/19 05:00:38;;;;;;;22.47;4.30;;;;;;;;;;5052724;28;20690;-67
2022/09/19 05:03:09;;;;;;;20.90;4.07;;;;;;;;;;5053325;28;20206;-67
2022/09/19 05:05:36;;;;;;;22.83;3.73;;;;;;;;;;5051447;28;20185;-67
2022/09/19 05:08:04;;;;;;;15.77;3.63;;;;;;;;;;5052601;28;20651;-67
2022/09/19 05:10:31;;;;;;;22.47;3.53;;;;;;;;;;5051496;28;20211;-67
2022/09/19 05:12:57;;;;;;;16.60;3.13;;;;;;;;;;5051397;28;20189;-67
2022/09/19 05:15:24;;;;;;;13.83;3.63;;;;;;;;;;5052944;28;20175;-68
2022/09/19 05:17:53;;;;;;;12.60;3.80;;;;;;;;;;5053122;28;20261;-67
2022/09/19 05:20:20;;;;;;;14.60;3.73;;;;;;;;;;5051076;28;20640;-68
2022/09/19 05:22:46;;;;;;;22.03;3.67;;;;;;;;;;5052560;28;20182;-67
2022/09/19 05:25:15;;;;;;;26.43;4.17;;;;;;;;;;5051244;28;20183;-68
2022/09/19 05:27:41;;;;;;;15.50;4.40;;;;;;;;;;5053677;28;20542;-68
2022/09/19 05:30:07;;;;;;;14.17;3.57;;;;;;;;;;5056100;28;20210;-68
2022/09/19 05:32:34;;;;;;;18.70;3.83;;;;;;;;;;5056156;28;20653;-67
2022/09/19 05:35:00;;;;;;;22.03;3.83;;;;;;;;;;5054833;28;20563;-68
2022/09/19 05:37:27;;;;;;;15.17;3.70;;;;;;;;;;5054821;28;20190;-67
2022/09/19 05:39:53;;;;;;;18.00;4.33;;;;;;;;;;5055819;28;20233;-68
2022/09/19 05:42:19;;;;;;;13.43;3.50;;;;;;;;;;5056309;28;20229;-68
2022/09/19 05:44:45;;;;;;;22.20;4.27;;;;;;;;;;5055885;28;20171;-68
2022/09/19 05:47:11;;;;;;;15.67;3.87;;;;;;;;;;5055889;28;20233;-67
2022/09/19 05:49:37;;;;;;;16.10;4.23;;;;;;;;;;5054516;28;20198;-67
2022/09/19 05:53:51;;;;;;;19.33;4.70;;;;;;;;;;5054630;28;20178;-68
2022/09/19 05:54:49;;;;;;;13.63;3.53;;;;;;;;;;5055631;28;20739;-68
2022/09/19 05:57:17;;;;;;;13.73;3.67;;;;;;;;;;5056048;28;20175;-67
2022/09/19 05:59:43;;;;;;;18.73;4.07;;;;;;;;;;5054146;28;20196;-68
2022/09/19 06:02:10;;;;;;;16.13;4.33;;;;;;;;;;5055672;28;20182;-67
2022/09/19 06:04:36;;;;;;;23.07;4.40;;;;;;;;;;5055823;28;20202;-67
2022/09/19 06:07:02;;;;;;;14.70;5.37;;;;;;;;;;5056307;28;20639;-68
2022/09/19 06:09:28;;;;;;;19.00;5.07;;;;;;;;;;5055859;28;20202;-67
2022/09/19 06:11:54;;;;;;;16.63;7.47;;;;;;;;;;5055591;28;20175;-68
2022/09/19 06:14:23;;;;;;;20.03;7.60;;;;;;;;;;5055366;28;20193;-68
2022/09/19 06:16:49;;;;;;;18.53;5.13;;;;;;;;;;5054205;28;20182;-67
2022/09/19 06:19:15;;;;;;;14.57;4.23;;;;;;;;;;5055323;28;20178;-67
2022/09/19 06:21:41;;;;;;;20.20;4.67;;;;;;;;;;5054042;28;20209;-67
2022/09/19 06:24:07;;;;;;;17.40;3.83;;;;;;;;;;5055328;28;20170;-67
2022/09/19 06:26:34;;;;;;;16.17;4.13;;;;;;;;;;5055250;28;20198;-67
2022/09/19 06:29:01;;;;;;;12.77;3.80;;;;;;;;;;5053839;28;20185;-66
2022/09/19 06:31:30;;;;;;;13.87;3.57;;;;;;;;;;5055128;28;20175;-68
2022/09/19 06:33:56;;;;;;;14.23;2.83;;;;;;;;;;5055159;28;20181;-68
2022/09/19 06:36:22;;;;;;;13.13;4.30;;;;;;;;;;5053942;28;20625;-67
2022/09/19 06:38:48;;;;;;;17.50;3.03;;;;;;;;;;5080752;22;20194;-68
2022/09/19 06:41:15;;;;;;;10.50;2.80;;;;;;;;;;5036965;28;20210;-68
2022/09/19 06:43:40;;;;;;;14.23;3.20;;;;;;;;;;5036917;28;20174;-66
2022/09/19 06:46:09;;;;;;;13.90;3.20;;;;;;;;;;5036838;28;20175;-66
2022/09/19 06:48:35;;;;;;;8.70;3.20;;;;;;;;;;5036585;28;20647;-66
2022/09/19 06:51:02;;;;;;;11.77;2.67;;;;;;;;;;5036807;28;20186;-65
2022/09/19 06:53:28;;;;;;;12.17;3.13;;;;;;;;;;5054648;28;20179;-66
2022/09/19 06:55:56;;;;;;;11.13;3.00;;;;;;;;;;5036629;28;20598;-68
2022/09/19 06:58:22;;;;;;;7.73;2.40;;;;;;;;;;5054528;28;20541;-66
2022/09/19 07:00:48;;;;;;;9.93;2.67;;;;;;;;;;5054290;28;20203;-66
2022/09/19 07:03:15;;;;;;;12.27;3.00;;;;;;;;;;5054652;28;20181;-66
2022/09/19 07:05:42;;;;;;;12.90;3.50;;;;;;;;;;5036812;28;20632;-69
2022/09/19 07:08:08;;;;;;;10.80;3.10;;;;;;;;;;5036524;28;20179;-67
2022/09/19 07:10:36;;;;;;;12.67;2.80;;;;;;;;;;5054162;28;20260;-66
2022/09/19 07:13:02;;;;;;;9.47;2.60;;;;;;;;;;5054395;28;20205;-66
2022/09/19 07:15:29;;;;;;;10.80;2.70;;;;;;;;;;5054438;28;20255;-67
2022/09/19 07:17:55;;;;;;;12.50;3.40;;;;;;;;;;5054439;28;20721;-67
2022/09/19 07:20:21;;;;;;;8.57;2.63;;;;;;;;;;5053944;28;20256;-67
2022/09/19 07:22:47;;;;;;;14.80;3.23;;;;;;;;;;5036122;28;20771;-66
2022/09/19 07:25:14;;;;;;;10.20;2.30;;;;;;;;;;5036360;28;20191;-66
2022/09/19 07:27:42;;;;;;;10.23;3.40;;;;;;;;;;5054342;28;20262;-68
2022/09/19 07:30:08;;;;;;;13.57;3.47;;;;;;;;;;5036213;28;20203;-67
2022/09/19 07:32:34;;;;;;;15.57;2.90;;;;;;;;;;5036033;28;20539;-67
2022/09/19 07:35:00;;;;;;;14.13;3.30;;;;;;;;;;5053917;28;20189;-66
2022/09/19 07:37:26;;;;;;;16.10;3.93;;;;;;;;;;5036106;28;20178;-66
2022/09/19 07:39:52;;;;;;;10.90;3.17;;;;;;;;;;5053609;28;20214;-65
2022/09/19 07:42:20;;;;;;;9.70;2.70;;;;;;;;;;5036021;28;20182;-65
2022/09/19 07:44:46;;;;;;;15.00;4.50;;;;;;;;;;5054017;28;20181;-64
2022/09/19 07:47:27;;;;;;;9.70;3.47;;;;;;;;;;5054286;28;20190;-64
2022/09/19 07:49:56;;;;;;;13.87;3.23;;;;;;;;;;5053464;28;20206;-66
2022/09/19 07:52:22;;;;;;;13.37;3.03;;;;;;;;;;5053632;28;20177;-66
2022/09/19 07:54:49;;;;;;;13.33;3.40;;;;;;;;;;5053724;28;20634;-66
2022/09/19 07:57:15;;;;;;;10.37;2.67;;;;;;;;;;5053438;28;20170;-67
2022/09/19 07:59:41;;;;;;;13.80;3.27;;;;;;;;;;5053159;28;20198;-66
2022/09/19 08:02:08;;;;;;;14.10;2.90;;;;;;;;;;5053563;28;20201;-66
2022/09/19 08:04:36;;;;;;;12.10;3.40;;;;;;;;;;5053223;28;20171;-66
2022/09/19 08:07:02;;;;;;;11.37;2.70;;;;;;;;;;5035346;28;20182;-66
2022/09/19 08:09:28;;;;;;;11.27;3.07;;;;;;;;;;5053672;28;20190;-66
2022/09/19 08:11:53;;;;;;;8.20;2.60;;;;;;;;;;5035321;28;20220;-66
2022/09/19 08:14:19;;;;;;;12.57;2.90;;;;;;;;;;5035459;28;20181;-66
2022/09/19 08:16:45;;;;;;;9.97;2.60;;;;;;;;;;5053147;28;20183;-66
2022/09/19 08:19:11;;;;;;;13.33;2.87;;;;;;;;;;5035180;28;20202;-66
2022/09/19 08:21:37;;;;;;;9.87;2.70;;;;;;;;;;5053359;28;20198;-66
2022/09/19 08:24:03;;;;;;;14.57;3.00;;;;;;;;;;5053595;28;20175;-67
2022/09/19 08:26:30;;;;;;;12.33;2.90;;;;;;;;;;5035123;28;20182;-66
2022/09/19 08:28:56;;;;;;;11.30;3.00;;;;;;;;;;5053058;28;20195;-67
2022/09/19 08:31:24;;;;;;;12.73;2.97;;;;;;;;;;5035149;28;20291;-67
2022/09/19 08:33:50;;;;;;;14.17;3.17;;;;;;;;;;5035146;28;20221;-67
2022/09/19 08:36:16;;;;;;;14.67;3.47;;;;;;;;;;5035385;28;20210;-68
2022/09/19 08:38:42;;;;;;;7.63;2.43;;;;;;;;;;5053202;28;20669;-67
2022/09/19 08:41:27;;;;;;;13.67;3.17;;;;;;;;;;5053269;28;20198;-64
2022/09/19 08:43:59;;;;;;;13.60;3.23;;;;;;;;;;5035194;28;20225;-66
2022/09/19 08:46:28;;;;;;;12.13;2.90;;;;;;;;;;5034974;28;20183;-66
2022/09/19 08:48:57;;;;;;;9.70;2.40;;;;;;;;;;5034924;28;20641;-67
2022/09/19 08:51:32;;;;;;;13.13;2.90;;;;;;;;;;5052775;28;20612;-66
2022/09/19 08:54:18;;;;;;;10.10;2.67;;;;;;;;;;5034863;28;20603;-66
2022/09/19 08:56:44;;;;;;;14.23;3.27;;;;;;;;;;5052859;28;20178;-66
2022/09/19 08:59:15;;;;;;;11.17;2.90;;;;;;;;;;5035061;28;20210;-66
2022/09/19 09:01:41;;;;;;;9.77;2.50;;;;;;;;;;5053716;28;20190;-67
2022/09/19 09:04:15;;;;;;;15.00;2.97;;;;;;;;;;5038616;28;20217;-66
2022/09/19 09:06:55;;;;;;;5.87;2.20;;;;;;;;;;5039097;28;20174;-66
2022/09/19 09:09:39;;;;;;;10.47;2.73;;;;;;;;;;5041116;28;20281;-69
2022/09/19 09:12:14;;;;;;;11.40;2.50;;;;;;;;;;5057043;28;20182;-66
2022/09/19 09:15:01;;;;;;;10.43;2.50;;;;;;;;;;5056513;28;20198;-68
2022/09/19 09:17:30;;;;;;;12.70;3.43;;;;;;;;;;5056654;28;20163;-68
2022/09/19 09:20:04;;;;;;;16.77;3.20;;;;;;;;;;5056094;28;20241;-68
2022/09/19 09:22:37;;;;;;;14.77;2.70;;;;;;;;;;5039105;28;20264;-68
2022/09/19 09:25:12;;;;;;;12.93;2.87;;;;;;;;;;5039252;28;20584;-67
2022/09/19 09:27:45;;;;;;;12.13;2.57;;;;;;;;;;5056785;28;20173;-67
2022/09/19 09:30:16;;;;;;;9.33;2.80;;;;;;;;;;5038783;28;20225;-68
2022/09/19 09:32:45;;;;;;;11.07;3.00;;;;;;;;;;5038244;28;20178;-68
2022/09/19 09:35:18;;;;;;;8.37;2.23;;;;;;;;;;5056073;28;20634;-68
2022/09/19 09:37:56;;;;;;;10.23;2.43;;;;;;;;;;5038407;28;20179;-68
2022/09/19 09:43:14;;;;;;;9.83;2.90;;;;;;;;;;5056269;28;20174;-67
2022/09/19 09:45:45;;;;;;;8.40;2.30;;;;;;;;;;5037954;28;20610;-67
2022/09/19 09:48:20;;;;;;;10.60;2.73;;;;;;;;;;5037871;28;20229;-67
2022/09/19 09:51:06;;;;;;;8.53;2.60;;;;;;;;;;5037855;28;20252;-67
2022/09/19 09:53:49;;;;;;;12.00;2.57;;;;;;;;;;5037842;28;20698;-67
2022/09/19 09:56:27;;;;;;;9.17;2.60;;;;;;;;;;5055783;28;20257;-67
2022/09/19 09:59:02;;;;;;;11.87;2.70;;;;;;;;;;5037656;28;20188;-67
2022/09/19 10:04:35;;;;;;;8.07;2.30;;;;;;;;;;5055668;28;20165;-68
2022/09/19 10:07:10;;;;;;;7.93;2.30;;;;;;;;;;5055705;28;20159;-67
2022/09/19 10:09:37;;;;;;;13.30;2.93;;;;;;;;;;5055574;28;20193;-68
2022/09/19 10:12:08;;;;;;;10.57;2.67;;;;;;;;;;5055864;28;20209;-67
2022/09/19 10:14:38;;;;;;;7.67;2.43;;;;;;;;;;5054997;28;20578;-68
2022/09/19 10:17:07;;;;;;;13.83;2.53;;;;;;;;;;5055157;28;20639;-67
2022/09/19 10:19:39;;;;;;;15.50;3.17;;;;;;;;;;5037258;28;20297;-67
2022/09/19 10:22:05;;;;;;;8.57;2.40;;;;;;;;;;5055268;28;20222;-67
2022/09/19 10:24:52;;;;;;;12.30;2.67;;;;;;;;;;5055278;28;20300;-67
2022/09/19 10:27:23;;;;;;;9.57;2.30;;;;;;;;;;5055032;28;20205;-67
2022/09/19 10:29:51;;;;;;;10.67;2.40;;;;;;;;;;5037023;28;20205;-66
2022/09/19 10:32:21;;;;;;;10.13;2.93;;;;;;;;;;5037038;28;20674;-67
2022/09/19 10:34:49;;;;;;;12.43;2.37;;;;;;;;;;5037061;28;20182;-67
2022/09/19 10:37:15;;;;;;;9.93;3.10;;;;;;;;;;5036950;28;20730;-67
2022/09/19 10:39:46;;;;;;;10.47;2.33;;;;;;;;;;5036736;28;20576;-67
2022/09/19 10:42:31;;;;;;;9.37;2.60;;;;;;;;;;5054749;28;20170;-67
2022/09/19 10:45:00;;;;;;;6.73;2.40;;;;;;;;;;5054796;28;20177;-67
2022/09/19 10:47:28;;;;;;;12.97;2.40;;;;;;;;;;5054922;28;20189;-67
2022/09/19 10:50:00;;;;;;;9.90;1.90;;;;;;;;;;5054896;28;20198;-67
2022/09/19 10:52:30;;;;;;;8.47;1.90;;;;;;;;;;5036880;28;20662;-67
2022/09/19 10:54:58;;;;;;;9.83;2.23;;;;;;;;;;5055090;28;20316;-66
2022/09/19 10:57:34;;;;;;;11.37;2.30;;;;;;;;;;5036836;28;20190;-67
2022/09/19 11:00:01;;;;;;;8.90;2.50;;;;;;;;;;5036811;28;20202;-67
2022/09/19 11:02:27;;;;;;;5.17;1.60;;;;;;;;;;5036645;28;20316;-67
2022/09/19 11:04:59;;;;;;;5.60;1.87;;;;;;;;;;5054456;28;20253;-67
2022/09/19 11:07:29;;;;;;;7.23;2.00;;;;;;;;;;5054846;28;20166;-67
2022/09/19 11:09:59;;;;;;;8.63;2.20;;;;;;;;;;5054652;28;20678;-68
2022/09/19 11:12:25;;;;;;;6.97;2.30;;;;;;;;;;5054209;28;20532;-67
2022/09/19 11:14:55;;;;;;;8.40;2.57;;;;;;;;;;5054584;28;20172;-67
2022/09/19 11:17:25;;;;;;;8.03;2.10;;;;;;;;;;5054127;28;20178;-67
2022/09/19 11:20:14;;;;;;;7.93;2.20;;;;;;;;;;5035968;28;20222;-67
2022/09/19 11:22:53;;;;;;;6.80;1.87;;;;;;;;;;5054245;28;20170;-68
2022/09/19 11:25:38;;;;;;;3.63;1.13;;;;;;;;;;5053240;28;20240;-68
2022/09/19 11:28:28;;;;;;;3.30;1.60;;;;;;;;;;5053869;28;20666;-68
2022/09/19 11:31:20;;;;;;;3.47;1.53;;;;;;;;;;5037019;28;20548;-67
2022/09/19 11:34:13;;;;;;;4.60;1.10;;;;;;;;;;5016465;28;20221;-67
2022/09/19 11:36:57;;;;;;;2.10;1.20;;;;;;;;;;5049332;28;20194;-66
2022/09/19 11:39:36;;;;;;;8.33;4.10;;;;;;;;;;5053465;28;20213;-66
2022/09/19 11:42:09;;;;;;;10.23;5.23;;;;;;;;;;5035836;28;20614;-66
2022/09/19 11:44:53;;;;;;;11.50;8.13;;;;;;;;;;5054133;28;20238;-66
2022/09/19 11:47:30;;;;;;;33.93;23.80;;;;;;;;;;5035734;28;20629;-66
2022/09/19 11:49:56;;;;;;;12.10;9.07;;;;;;;;;;5053392;28;20269;-67
2022/09/19 11:52:33;;;;;;;20.03;13.00;;;;;;;;;;5035585;28;20186;-66
2022/09/19 11:55:19;;;;;;;8.93;5.10;;;;;;;;;;5053774;28;20170;-67
2022/09/19 11:58:03;;;;;;;6.37;3.10;;;;;;;;;;5053586;28;20244;-67
2022/09/19 12:00:29;;;;;;;4.90;1.90;;;;;;;;;;5053459;28;20206;-67
2022/09/19 12:03:16;;;;;;;4.47;2.83;;;;;;;;;;5053572;28;20679;-67
2022/09/19 12:05:57;;;;;;;6.73;3.30;;;;;;;;;;5035483;28;20163;-67
2022/09/19 12:08:27;;;;;;;6.33;2.30;;;;;;;;;;5035431;28;20186;-67
2022/09/19 12:10:57;;;;;;;4.90;1.97;;;;;;;;;;5053413;28;20199;-67
2022/09/19 12:13:26;;;;;;;5.80;2.73;;;;;;;;;;5053155;28;20218;-67
2022/09/19 12:15:56;;;;;;;2.57;1.80;;;;;;;;;;5053381;28;20186;-67
2022/09/19 12:18:24;;;;;;;4.10;2.30;;;;;;;;;;5053794;28;20208;-67
2022/09/19 12:20:53;;;;;;;4.40;2.00;;;;;;;;;;5053025;28;20236;-66
2022/09/19 12:26:21;;;;;;;3.80;1.63;;;;;;;;;;5053034;28;20170;-67
2022/09/19 12:28:52;;;;;;;2.87;1.83;;;;;;;;;;5053279;28;20185;-67
2022/09/19 12:31:21;;;;;;;4.47;1.70;;;;;;;;;;5035166;28;20269;-67
2022/09/19 12:33:53;;;;;;;6.13;2.00;;;;;;;;;;5053059;28;20175;-67
2022/09/19 12:36:32;;;;;;;6.03;2.50;;;;;;;;;;5053925;28;20206;-67
2022/09/19 12:39:04;;;;;;;6.53;2.07;;;;;;;;;;5057161;28;20248;-67
2022/09/19 12:41:44;;;;;;;5.03;1.73;;;;;;;;;;5057272;28;20194;-68
2022/09/19 12:44:17;;;;;;;5.00;1.80;;;;;;;;;;5057356;28;20162;-67
2022/09/19 12:46:46;;;;;;;2.80;1.60;;;;;;;;;;5057332;28;20167;-68
2022/09/19 12:49:28;;;;;;;6.73;1.80;;;;;;;;;;5056891;28;20644;-68
2022/09/19 12:52:09;;;;;;;7.90;2.07;;;;;;;;;;5057284;28;20730;-68
2022/09/19 12:54:43;;;;;;;5.20;1.90;;;;;;;;;;5039046;28;20661;-68
2022/09/19 12:57:12;;;;;;;7.13;1.67;;;;;;;;;;5056815;28;20504;-66
2022/09/19 12:59:39;;;;;;;4.50;2.00;;;;;;;;;;5056680;28;20554;-66
2022/09/19 13:02:21;;;;;;;6.30;1.80;;;;;;;;;;5038566;28;20252;-66
2022/09/19 13:04:58;;;;;;;5.07;2.10;;;;;;;;;;5056678;28;20622;-66
2022/09/19 13:07:30;;;;;;;4.10;1.67;;;;;;;;;;5056984;28;20165;-68
2022/09/19 13:10:05;;;;;;;3.77;1.70;;;;;;;;;;5056908;28;20247;-68
2022/09/19 13:12:40;;;;;;;5.17;2.80;;;;;;;;;;5038537;28;20624;-65
2022/09/19 13:15:18;;;;;;;16.50;12.50;;;;;;;;;;5038414;28;20261;-66
2022/09/19 13:23:38;;;;;;;4.30;3.90;;;;;;;;;;5056337;28;20220;-66
2022/09/19 13:26:16;;;;;;;4.57;2.57;;;;;;;;;;5056240;28;20182;-66
2022/09/19 13:29:02;;;;;;;4.70;3.20;;;;;;;;;;5056211;28;20178;-66
2022/09/19 13:31:39;;;;;;;3.23;1.73;;;;;;;;;;5056586;28;20274;-66
2022/09/19 13:34:27;;;;;;;3.93;2.37;;;;;;;;;;5056324;28;20261;-66
2022/09/19 13:36:53;;;;;;;5.77;2.47;;;;;;;;;;5056921;28;20232;-66
2022/09/19 13:39:39;;;;;;;5.67;2.00;;;;;;;;;;5055958;28;20210;-67
2022/09/19 13:42:06;;;;;;;7.93;2.77;;;;;;;;;;5056068;28;20260;-67
2022/09/19 13:44:43;;;;;;;3.83;2.17;;;;;;;;;;5056221;28;20220;-67
2022/09/19 13:47:19;;;;;;;8.43;2.13;;;;;;;;;;5056109;28;20241;-67
2022/09/19 13:49:55;;;;;;;4.70;2.20;;;;;;;;;;5055208;28;20244;-67
2022/09/19 13:52:31;;;;;;;6.27;2.73;;;;;;;;;;5055725;28;20170;-67
2022/09/19 13:55:09;;;;;;;3.67;2.03;;;;;;;;;;5055966;28;20158;-67
2022/09/19 13:57:39;;;;;;;4.33;2.20;;;;;;;;;;5038155;28;20593;-67
2022/09/19 14:00:17;;;;;;;5.23;2.40;;;;;;;;;;5055787;28;20225;-67
2022/09/19 14:02:58;;;;;;;4.40;1.90;;;;;;;;;;5056147;28;20159;-68
2022/09/19 14:05:24;;;;;;;5.13;1.97;;;;;;;;;;5055910;28;20167;-68
2022/09/19 14:07:53;;;;;;;4.50;2.00;;;;;;;;;;5055763;28;20177;-66
2022/09/19 14:10:26;;;;;;;5.93;1.57;;;;;;;;;;5037507;28;20296;-67
2022/09/19 14:12:54;;;;;;;6.77;1.87;;;;;;;;;;5055399;28;20182;-66
2022/09/19 14:15:40;;;;;;;5.90;2.00;;;;;;;;;;5037502;28;20182;-66
2022/09/19 14:18:12;;;;;;;5.50;1.90;;;;;;;;;;5037128;28;20187;-66
2022/09/19 14:20:52;;;;;;;5.30;2.30;;;;;;;;;;5037092;28;20218;-67
2022/09/19 14:23:20;;;;;;;7.97;4.90;;;;;;;;;;5055334;28;20179;-66
2022/09/19 14:26:03;;;;;;;8.40;5.90;;;;;;;;;;5055007;28;20672;-67
2022/09/19 14:29:00;;;;;;;7.77;3.53;;;;;;;;;;5037239;28;20190;-67
2022/09/19 14:31:44;;;;;;;5.70;1.93;;;;;;;;;;4968399;28;20241;-67
2022/09/19 14:34:22;;;;;;;3.80;1.57;;;;;;;;;;5055172;28;20178;-68
2022/09/19 14:36:55;;;;;;;5.00;1.70;;;;;;;;;;5054864;28;20551;-68
2022/09/19 14:39:24;;;;;;;5.47;2.27;;;;;;;;;;5054765;28;20322;-68
2022/09/19 14:41:50;;;;;;;8.10;1.80;;;;;;;;;;5054992;28;20205;-68
2022/09/19 14:44:16;;;;;;;6.13;1.87;;;;;;;;;;5036865;28;20187;-68
2022/09/19 14:46:46;;;;;;;2.93;1.40;;;;;;;;;;5055036;28;20654;-67
2022/09/19 14:49:18;;;;;;;5.53;1.80;;;;;;;;;;5054539;28;20670;-68
2022/09/19 14:51:44;;;;;;;6.17;1.60;;;;;;;;;;5054609;28;20202;-67
2022/09/19 14:54:16;;;;;;;6.37;1.70;;;;;;;;;;5036701;28;20208;-67
2022/09/19 14:56:53;;;;;;;2.97;1.67;;;;;;;;;;5054568;28;20170;-67
2022/09/19 14:59:22;;;;;;;6.90;2.10;;;;;;;;;;5036305;28;20206;-67
2022/09/19 15:01:48;;;;;;;5.03;1.73;;;;;;;;;;5035797;28;20207;-67
2022/09/19 15:04:19;;;;;;;4.63;2.07;;;;;;;;;;5054407;28;20716;-68
2022/09/19 15:06:47;;;;;;;5.80;1.97;;;;;;;;;;5036620;28;20179;-67
2022/09/19 15:09:26;;;;;;;7.63;1.90;;;;;;;;;;5054312;28;20226;-67
2022/09/19 15:11:55;;;;;;;6.23;1.70;;;;;;;;;;5036486;28;20166;-67